Time;durP1;ratioP1;P1;durP2;ratioP2;P2;SDS_P1;SDS_P2;PMS_P1;PMS_P2;Temp;Humidity;BMP_temperature;BMP_pressure;BME280_temperature;BME280_humidity;BME280_pressure;Samples;Min_cycle;Max_cycle;Signal;HPM_P1;HPM_P2
2021/12/06 00:00:50;;;;;;;11.20;10.10;;;;;;;;;;5109879;28;20227;-87
2021/12/06 00:03:20;;;;;;;10.60;9.60;;;;;;;;;;5110059;28;20213;-87
2021/12/06 00:05:49;;;;;;;10.57;9.57;;;;;;;;;;5109929;28;20429;-87
2021/12/06 00:08:16;;;;;;;10.33;9.33;;;;;;;;;;5109943;28;20247;-87
2021/12/06 00:10:44;;;;;;;10.00;9.00;;;;;;;;;;5109967;28;20310;-87
2021/12/06 00:13:12;;;;;;;10.10;8.83;;;;;;;;;;5111505;28;20200;-87
2021/12/06 00:15:41;;;;;;;9.90;9.00;;;;;;;;;;5111059;28;20302;-87
2021/12/06 00:18:08;;;;;;;10.43;9.33;;;;;;;;;;5110738;28;20285;-87
2021/12/06 00:20:36;;;;;;;11.17;8.73;;;;;;;;;;5110574;28;20222;-87
2021/12/06 00:23:04;;;;;;;10.17;9.23;;;;;;;;;;5110113;28;20286;-88
2021/12/06 00:25:31;;;;;;;11.07;9.27;;;;;;;;;;5110773;28;20255;-87
2021/12/06 00:27:59;;;;;;;10.47;9.37;;;;;;;;;;5109946;28;20295;-85
2021/12/06 00:30:26;;;;;;;10.50;9.60;;;;;;;;;;5118466;28;20210;-88
2021/12/06 00:32:53;;;;;;;12.70;10.50;;;;;;;;;;5130933;28;20203;-90
2021/12/06 00:35:23;;;;;;;10.53;9.50;;;;;;;;;;5127787;28;20206;-89
2021/12/06 00:37:57;;;;;;;10.43;9.43;;;;;;;;;;5124966;28;20195;-87
2021/12/06 00:40:27;;;;;;;10.00;9.10;;;;;;;;;;5124770;28;20206;-87
2021/12/06 00:42:55;;;;;;;10.17;9.17;;;;;;;;;;5122967;28;20195;-85
2021/12/06 00:45:22;;;;;;;9.97;8.97;;;;;;;;;;5122100;28;20303;-87
2021/12/06 00:47:49;;;;;;;10.23;9.33;;;;;;;;;;5126755;28;20239;-87
2021/12/06 00:50:18;;;;;;;11.57;10.40;;;;;;;;;;5131136;27;20191;-88
2021/12/06 00:52:45;;;;;;;11.97;10.77;;;;;;;;;;5126711;28;20215;-88
2021/12/06 00:55:13;;;;;;;11.80;10.70;;;;;;;;;;5121407;28;20203;-86
2021/12/06 00:57:42;;;;;;;11.67;10.30;;;;;;;;;;5109074;28;20199;-87
2021/12/06 01:00:12;;;;;;;11.60;10.40;;;;;;;;;;5096129;28;20212;-87
2021/12/06 01:02:40;;;;;;;10.80;9.80;;;;;;;;;;5095693;28;20279;-87
2021/12/06 01:05:07;;;;;;;11.30;10.30;;;;;;;;;;5094055;28;20244;-87
2021/12/06 01:07:35;;;;;;;12.13;10.73;;;;;;;;;;5092892;28;20253;-87
2021/12/06 01:10:02;;;;;;;11.23;10.23;;;;;;;;;;5096783;28;20294;-87
2021/12/06 01:12:29;;;;;;;12.30;11.00;;;;;;;;;;5084783;28;20192;-86
2021/12/06 01:14:58;;;;;;;10.77;9.70;;;;;;;;;;5094843;28;20290;-87
2021/12/06 01:17:26;;;;;;;11.17;10.10;;;;;;;;;;5095890;28;20255;-85
2021/12/06 01:19:53;;;;;;;11.70;10.60;;;;;;;;;;5092476;28;20196;-88
2021/12/06 01:22:27;;;;;;;10.67;9.67;;;;;;;;;;5095811;28;20623;-87
2021/12/06 01:24:58;;;;;;;10.73;9.73;;;;;;;;;;5096096;28;20214;-87
2021/12/06 01:30:33;;;;;;;10.67;9.67;;;;;;;;;;5082169;28;20207;-88
2021/12/06 01:33:32;;;;;;;10.87;9.77;;;;;;;;;;5101151;28;20212;-88
2021/12/06 01:41:31;;;;;;;10.57;9.67;;;;;;;;;;5094967;28;20195;-86
2021/12/06 01:44:06;;;;;;;10.73;9.73;;;;;;;;;;5094989;28;20295;-87
2021/12/06 01:46:35;;;;;;;10.47;9.47;;;;;;;;;;5088473;28;20230;-86
2021/12/06 01:49:02;;;;;;;10.67;9.10;;;;;;;;;;5095954;28;20282;-87
2021/12/06 01:51:30;;;;;;;10.53;9.53;;;;;;;;;;5095117;28;20207;-87
2021/12/06 01:53:58;;;;;;;11.63;10.53;;;;;;;;;;5093322;28;20199;-87
2021/12/06 01:56:25;;;;;;;10.67;9.67;;;;;;;;;;5094646;28;20720;-86
2021/12/06 01:58:53;;;;;;;10.77;9.67;;;;;;;;;;5094976;28;20621;-87
2021/12/06 02:01:20;;;;;;;11.00;9.90;;;;;;;;;;5094162;28;20253;-87
2021/12/06 02:03:49;;;;;;;10.13;9.23;;;;;;;;;;5092481;28;20288;-87
2021/12/06 02:06:16;;;;;;;10.97;9.87;;;;;;;;;;5091893;28;20311;-86
2021/12/06 02:08:43;;;;;;;10.47;9.47;;;;;;;;;;5089972;28;20219;-87
2021/12/06 02:11:11;;;;;;;9.83;8.93;;;;;;;;;;5087648;28;20234;-86
2021/12/06 02:13:45;;;;;;;11.13;9.17;;;;;;;;;;5093481;28;20227;-86
2021/12/06 02:16:14;;;;;;;10.80;9.70;;;;;;;;;;5094094;28;20216;-87
2021/12/06 02:18:44;;;;;;;10.77;9.33;;;;;;;;;;5094165;28;20200;-87
2021/12/06 02:21:15;;;;;;;10.93;9.90;;;;;;;;;;5083913;28;20261;-87
2021/12/06 02:23:46;;;;;;;10.47;9.43;;;;;;;;;;5093467;28;20256;-86
2021/12/06 02:26:13;;;;;;;11.33;10.23;;;;;;;;;;5094806;28;20252;-87
2021/12/06 02:28:41;;;;;;;11.07;9.97;;;;;;;;;;5094988;28;20327;-86
2021/12/06 02:31:08;;;;;;;11.43;10.33;;;;;;;;;;5098132;28;20211;-87
2021/12/06 02:33:35;;;;;;;12.27;10.97;;;;;;;;;;5094035;28;20200;-87
2021/12/06 02:36:02;;;;;;;11.27;10.17;;;;;;;;;;5093321;28;20251;-87
2021/12/06 02:38:31;;;;;;;11.27;10.17;;;;;;;;;;5093676;28;20210;-87
2021/12/06 02:40:58;;;;;;;10.90;9.90;;;;;;;;;;5097330;28;20346;-84
2021/12/06 02:43:26;;;;;;;11.20;10.10;;;;;;;;;;5094117;28;20282;-87
2021/12/06 02:45:53;;;;;;;12.13;10.67;;;;;;;;;;5091463;28;20239;-83
2021/12/06 02:48:20;;;;;;;11.53;10.00;;;;;;;;;;5096591;28;20243;-85
2021/12/06 02:50:49;;;;;;;11.67;10.37;;;;;;;;;;5097521;28;20279;-84
2021/12/06 02:53:17;;;;;;;12.80;10.80;;;;;;;;;;5096534;28;20207;-85
2021/12/06 02:55:51;;;;;;;11.37;10.27;;;;;;;;;;5097033;28;20251;-84
2021/12/06 02:58:43;;;;;;;11.50;10.30;;;;;;;;;;5096302;28;20202;-83
2021/12/06 03:01:11;;;;;;;10.93;9.93;;;;;;;;;;5095357;28;20218;-84
2021/12/06 03:03:39;;;;;;;13.00;11.70;;;;;;;;;;5097567;28;20212;-84
2021/12/06 03:06:09;;;;;;;12.97;11.30;;;;;;;;;;5099127;28;20246;-83
2021/12/06 03:08:38;;;;;;;12.93;11.50;;;;;;;;;;5097972;28;20281;-84
2021/12/06 03:11:08;;;;;;;13.13;11.90;;;;;;;;;;5098050;28;20292;-86
2021/12/06 03:13:35;;;;;;;14.87;13.30;;;;;;;;;;5097211;28;20196;-84
2021/12/06 03:16:02;;;;;;;14.20;12.93;;;;;;;;;;5096746;28;20224;-84
2021/12/06 03:18:30;;;;;;;14.43;12.67;;;;;;;;;;5097650;28;20207;-84
2021/12/06 03:20:57;;;;;;;14.63;13.23;;;;;;;;;;5097067;28;20215;-83
2021/12/06 03:23:24;;;;;;;15.77;14.27;;;;;;;;;;5097438;28;20242;-83
2021/12/06 03:25:52;;;;;;;15.63;14.13;;;;;;;;;;5096889;28;20260;-84
2021/12/06 03:28:20;;;;;;;16.67;14.97;;;;;;;;;;5096680;28;20261;-83
2021/12/06 03:30:48;;;;;;;16.10;14.60;;;;;;;;;;5097117;28;20275;-84
2021/12/06 03:33:15;;;;;;;16.20;14.70;;;;;;;;;;5096890;28;20200;-84
2021/12/06 03:35:42;;;;;;;15.03;13.53;;;;;;;;;;5096785;28;20299;-84
2021/12/06 03:38:09;;;;;;;15.60;14.10;;;;;;;;;;5096811;28;20231;-84
2021/12/06 03:40:37;;;;;;;16.57;14.90;;;;;;;;;;5097818;28;20223;-83
2021/12/06 03:43:04;;;;;;;16.03;14.53;;;;;;;;;;5096740;28;20286;-83
2021/12/06 03:45:36;;;;;;;15.73;14.20;;;;;;;;;;5097686;28;20231;-84
2021/12/06 03:48:03;;;;;;;16.53;14.93;;;;;;;;;;5098117;28;20219;-85
2021/12/06 03:50:30;;;;;;;17.17;15.47;;;;;;;;;;5103209;28;20271;-84
2021/12/06 03:52:57;;;;;;;16.97;15.27;;;;;;;;;;5096114;28;20264;-83
2021/12/06 03:55:25;;;;;;;17.63;15.93;;;;;;;;;;5095491;28;20239;-83
2021/12/06 03:57:52;;;;;;;15.97;14.47;;;;;;;;;;5098044;28;20234;-85
2021/12/06 04:00:19;;;;;;;17.10;15.40;;;;;;;;;;5098444;28;20224;-84
2021/12/06 04:02:48;;;;;;;16.40;14.80;;;;;;;;;;5094588;28;20204;-84
2021/12/06 04:05:15;;;;;;;18.37;15.83;;;;;;;;;;5094639;28;20234;-84
2021/12/06 04:07:43;;;;;;;16.53;14.80;;;;;;;;;;5093850;28;20220;-83
2021/12/06 04:10:11;;;;;;;17.17;15.37;;;;;;;;;;5095263;28;20223;-83
2021/12/06 04:12:39;;;;;;;16.97;15.23;;;;;;;;;;5097674;28;20212;-84
2021/12/06 04:15:08;;;;;;;20.03;15.73;;;;;;;;;;5095368;28;20212;-83
2021/12/06 04:17:35;;;;;;;18.70;16.70;;;;;;;;;;5094700;28;20239;-83
2021/12/06 04:20:04;;;;;;;18.67;15.87;;;;;;;;;;5095073;28;20249;-83
2021/12/06 04:22:32;;;;;;;23.17;17.00;;;;;;;;;;5095763;28;20253;-83
2021/12/06 04:25:01;;;;;;;22.17;17.17;;;;;;;;;;5096974;28;20263;-81
2021/12/06 04:27:29;;;;;;;20.67;16.47;;;;;;;;;;5096890;28;20285;-83
2021/12/06 04:29:56;;;;;;;20.93;16.07;;;;;;;;;;5096253;28;20200;-82
2021/12/06 04:32:24;;;;;;;20.17;16.97;;;;;;;;;;5096321;28;20207;-83
2021/12/06 04:34:51;;;;;;;19.00;15.73;;;;;;;;;;5100246;28;20223;-82
2021/12/06 04:37:20;;;;;;;19.43;16.37;;;;;;;;;;5096569;28;20330;-84
2021/12/06 04:39:47;;;;;;;22.73;17.07;;;;;;;;;;5100984;28;20282;-83
2021/12/06 04:42:15;;;;;;;20.97;17.57;;;;;;;;;;5099097;28;20226;-84
2021/12/06 04:44:42;;;;;;;20.43;16.13;;;;;;;;;;5099571;28;20200;-80
2021/12/06 04:47:09;;;;;;;21.43;18.07;;;;;;;;;;5100174;28;20239;-84
2021/12/06 04:49:37;;;;;;;21.87;18.00;;;;;;;;;;5101371;28;20283;-83
2021/12/06 04:52:07;;;;;;;21.33;16.93;;;;;;;;;;5100448;28;20203;-84
2021/12/06 04:54:37;;;;;;;21.87;18.27;;;;;;;;;;5101748;28;20212;-83
2021/12/06 04:57:07;;;;;;;22.07;18.13;;;;;;;;;;5101422;28;20240;-84
2021/12/06 04:59:36;;;;;;;21.37;17.80;;;;;;;;;;5099709;28;20188;-83
2021/12/06 05:02:05;;;;;;;21.00;17.17;;;;;;;;;;5101438;28;20273;-83
2021/12/06 05:04:34;;;;;;;22.87;17.60;;;;;;;;;;5101580;28;20268;-80
2021/12/06 05:07:03;;;;;;;20.47;16.90;;;;;;;;;;5101134;28;20247;-80
2021/12/06 05:09:32;;;;;;;20.60;17.67;;;;;;;;;;5109719;28;20239;-83
2021/12/06 05:12:00;;;;;;;18.77;15.83;;;;;;;;;;5111882;28;20200;-80
2021/12/06 05:14:29;;;;;;;18.50;15.80;;;;;;;;;;5113459;28;20215;-85
2021/12/06 05:16:56;;;;;;;18.07;15.60;;;;;;;;;;5103266;22;20293;-85
2021/12/06 05:19:25;;;;;;;20.67;15.63;;;;;;;;;;5078074;28;20248;-84
2021/12/06 05:21:52;;;;;;;19.87;15.73;;;;;;;;;;5075158;28;20246;-85
2021/12/06 05:24:20;;;;;;;18.87;16.00;;;;;;;;;;5086415;28;20228;-85
2021/12/06 05:26:47;;;;;;;18.93;15.73;;;;;;;;;;5082157;28;20220;-85
2021/12/06 05:29:20;;;;;;;16.83;15.00;;;;;;;;;;5081224;28;20239;-85
2021/12/06 05:31:55;;;;;;;16.97;15.13;;;;;;;;;;5079998;28;20193;-85
2021/12/06 05:34:29;;;;;;;17.97;16.00;;;;;;;;;;5082083;28;20208;-84
2021/12/06 05:36:56;;;;;;;16.93;14.97;;;;;;;;;;5090238;28;20227;-85
2021/12/06 05:39:24;;;;;;;18.30;15.00;;;;;;;;;;5080239;28;20201;-85
2021/12/06 05:41:51;;;;;;;17.63;14.63;;;;;;;;;;5080695;28;20270;-85
2021/12/06 05:44:20;;;;;;;17.83;14.80;;;;;;;;;;5079755;28;20222;-85
2021/12/06 05:46:47;;;;;;;18.90;15.40;;;;;;;;;;5075302;28;20263;-85
2021/12/06 05:49:14;;;;;;;17.37;15.30;;;;;;;;;;5078974;28;20224;-85
2021/12/06 05:51:42;;;;;;;19.13;17.03;;;;;;;;;;5078798;28;20789;-84
2021/12/06 05:54:09;;;;;;;18.23;16.27;;;;;;;;;;5079983;28;20216;-85
2021/12/06 05:56:36;;;;;;;18.77;15.77;;;;;;;;;;5079503;28;20311;-84
2021/12/06 05:59:04;;;;;;;17.37;15.17;;;;;;;;;;5078378;28;20224;-84
2021/12/06 06:01:33;;;;;;;17.63;15.53;;;;;;;;;;5078055;28;20250;-84
2021/12/06 06:04:01;;;;;;;19.53;15.43;;;;;;;;;;5075806;28;20219;-85
2021/12/06 06:06:29;;;;;;;18.17;15.60;;;;;;;;;;5076098;28;20229;-84
2021/12/06 06:08:56;;;;;;;19.63;16.23;;;;;;;;;;5078923;28;20231;-82
2021/12/06 06:11:23;;;;;;;18.93;15.10;;;;;;;;;;5079266;28;20208;-83
2021/12/06 06:13:51;;;;;;;20.60;15.97;;;;;;;;;;5079189;28;20231;-81
2021/12/06 06:16:20;;;;;;;20.30;16.27;;;;;;;;;;5079211;28;20738;-83
2021/12/06 06:18:49;;;;;;;22.03;17.20;;;;;;;;;;5080716;28;20196;-82
2021/12/06 06:21:17;;;;;;;20.97;16.33;;;;;;;;;;5079642;28;20228;-81
2021/12/06 06:23:44;;;;;;;20.73;16.47;;;;;;;;;;5079527;28;20288;-80
2021/12/06 06:26:15;;;;;;;21.33;16.57;;;;;;;;;;5076025;28;20212;-87
2021/12/06 06:28:42;;;;;;;22.47;17.37;;;;;;;;;;5074064;28;20213;-87
2021/12/06 06:34:14;;;;;;;24.07;16.77;;;;;;;;;;5064939;28;20211;-85
2021/12/06 06:36:47;;;;;;;24.33;17.70;;;;;;;;;;5064060;28;20306;-86
2021/12/06 06:39:19;;;;;;;24.47;16.83;;;;;;;;;;5065132;28;20200;-87
2021/12/06 06:41:46;;;;;;;22.70;17.13;;;;;;;;;;5075366;28;20205;-87
2021/12/06 06:44:15;;;;;;;24.30;17.37;;;;;;;;;;5065647;28;20295;-87
2021/12/06 06:46:42;;;;;;;24.50;18.43;;;;;;;;;;5065703;28;20281;-88
2021/12/06 06:49:10;;;;;;;27.03;18.57;;;;;;;;;;5066632;28;20258;-87
2021/12/06 06:51:39;;;;;;;23.57;17.97;;;;;;;;;;5066734;28;20288;-87
2021/12/06 06:54:06;;;;;;;26.73;17.77;;;;;;;;;;5064980;28;20205;-86
2021/12/06 06:56:34;;;;;;;23.23;17.37;;;;;;;;;;5068937;28;20232;-87
2021/12/06 06:59:01;;;;;;;24.50;17.77;;;;;;;;;;5064772;28;20279;-87
2021/12/06 07:01:28;;;;;;;26.00;18.17;;;;;;;;;;5063379;28;20284;-87
2021/12/06 07:03:56;;;;;;;23.77;17.00;;;;;;;;;;5060442;28;20289;-86
2021/12/06 07:06:23;;;;;;;24.43;17.27;;;;;;;;;;5065282;28;20220;-87
2021/12/06 07:08:54;;;;;;;26.20;17.67;;;;;;;;;;5060803;28;20221;-86
2021/12/06 07:11:21;;;;;;;26.13;18.23;;;;;;;;;;5064439;28;20204;-87
2021/12/06 07:13:49;;;;;;;26.33;16.90;;;;;;;;;;5070709;28;20200;-87
2021/12/06 07:16:16;;;;;;;25.10;17.60;;;;;;;;;;5067671;28;20236;-87
2021/12/06 07:18:44;;;;;;;26.53;17.03;;;;;;;;;;5065289;28;20223;-87
2021/12/06 07:21:13;;;;;;;27.40;17.20;;;;;;;;;;5066674;28;20203;-86
2021/12/06 07:23:41;;;;;;;26.63;17.40;;;;;;;;;;5070637;28;20192;-87
2021/12/06 07:26:10;;;;;;;26.13;17.17;;;;;;;;;;5070693;28;20220;-86
2021/12/06 07:28:38;;;;;;;23.00;15.97;;;;;;;;;;5073782;28;20200;-87
2021/12/06 07:31:06;;;;;;;26.40;15.93;;;;;;;;;;5065031;28;20201;-87
2021/12/06 07:33:33;;;;;;;25.23;16.40;;;;;;;;;;5071103;28;20296;-87
2021/12/06 07:36:01;;;;;;;26.53;16.63;;;;;;;;;;5062329;28;20287;-87
2021/12/06 07:38:28;;;;;;;27.40;17.60;;;;;;;;;;5070047;28;20258;-87
2021/12/06 07:40:57;;;;;;;26.43;17.87;;;;;;;;;;5070112;28;20229;-86
2021/12/06 07:43:26;;;;;;;28.77;17.30;;;;;;;;;;5073268;28;20204;-87
2021/12/06 07:45:53;;;;;;;27.13;17.37;;;;;;;;;;5066616;28;20236;-86
2021/12/06 07:48:20;;;;;;;27.53;17.80;;;;;;;;;;5067888;28;20247;-86
2021/12/06 07:50:48;;;;;;;25.00;17.33;;;;;;;;;;5062126;28;20221;-87
2021/12/06 07:53:15;;;;;;;28.87;17.73;;;;;;;;;;5062208;28;20344;-87
2021/12/06 07:55:42;;;;;;;30.63;17.80;;;;;;;;;;5059875;28;20200;-87
2021/12/06 07:58:10;;;;;;;27.00;17.37;;;;;;;;;;5064506;28;20298;-87
2021/12/06 08:00:40;;;;;;;28.17;18.23;;;;;;;;;;5063018;28;20196;-88
2021/12/06 08:03:08;;;;;;;27.07;17.40;;;;;;;;;;5068936;28;20192;-87
2021/12/06 08:05:37;;;;;;;25.03;16.50;;;;;;;;;;5064583;28;20209;-87
2021/12/06 08:08:06;;;;;;;24.30;16.33;;;;;;;;;;5065289;28;20694;-87
2021/12/06 08:10:34;;;;;;;28.27;18.60;;;;;;;;;;5070127;28;20366;-87
2021/12/06 08:13:01;;;;;;;26.80;17.03;;;;;;;;;;5072557;28;20197;-85
2021/12/06 08:15:28;;;;;;;26.50;17.17;;;;;;;;;;5064907;28;20283;-87
2021/12/06 08:17:57;;;;;;;26.27;16.10;;;;;;;;;;5067715;28;20301;-85
2021/12/06 08:20:25;;;;;;;25.67;16.97;;;;;;;;;;5070123;28;20228;-85
2021/12/06 08:22:52;;;;;;;26.70;17.17;;;;;;;;;;5066235;28;20209;-88
2021/12/06 08:25:20;;;;;;;26.63;16.67;;;;;;;;;;5067219;28;20201;-88
2021/12/06 08:27:47;;;;;;;26.10;16.60;;;;;;;;;;5064166;28;20221;-86
2021/12/06 08:30:16;;;;;;;26.33;17.27;;;;;;;;;;5069768;28;20316;-87
2021/12/06 08:32:44;;;;;;;26.33;16.80;;;;;;;;;;5069554;28;20274;-86
2021/12/06 08:35:13;;;;;;;23.57;15.60;;;;;;;;;;5063065;28;20210;-86
2021/12/06 08:37:43;;;;;;;22.90;15.90;;;;;;;;;;5070792;28;20299;-86
2021/12/06 08:40:11;;;;;;;23.03;16.00;;;;;;;;;;5068400;28;20193;-86
2021/12/06 08:42:38;;;;;;;22.63;15.93;;;;;;;;;;5064722;28;20209;-86
2021/12/06 08:45:09;;;;;;;22.10;15.63;;;;;;;;;;5075175;28;20209;-86
2021/12/06 08:47:37;;;;;;;22.37;15.53;;;;;;;;;;5067535;28;20225;-87
2021/12/06 08:50:05;;;;;;;19.77;13.97;;;;;;;;;;5076496;28;20289;-87
2021/12/06 08:52:34;;;;;;;20.70;14.83;;;;;;;;;;5074245;28;20300;-87
2021/12/06 08:55:01;;;;;;;18.13;13.97;;;;;;;;;;5070979;28;20201;-86
2021/12/06 08:57:29;;;;;;;21.10;14.40;;;;;;;;;;5078423;28;20220;-86
2021/12/06 08:59:56;;;;;;;21.10;15.17;;;;;;;;;;5079611;28;20239;-85
2021/12/06 09:02:44;;;;;;;17.37;14.07;;;;;;;;;;5076556;28;20238;-88
2021/12/06 09:05:12;;;;;;;17.53;13.83;;;;;;;;;;5070729;28;20208;-88
2021/12/06 09:07:43;;;;;;;20.33;14.53;;;;;;;;;;5075902;28;20229;-87
2021/12/06 09:10:12;;;;;;;18.23;13.27;;;;;;;;;;5077418;28;20224;-85
2021/12/06 09:12:40;;;;;;;17.70;13.73;;;;;;;;;;5076310;28;20221;-85
2021/12/06 09:15:09;;;;;;;18.80;13.70;;;;;;;;;;5078150;28;20228;-85
2021/12/06 09:17:36;;;;;;;18.90;14.43;;;;;;;;;;5069096;28;20240;-85
2021/12/06 09:20:04;;;;;;;18.13;13.87;;;;;;;;;;5072154;28;20312;-86
2021/12/06 09:22:31;;;;;;;17.90;13.50;;;;;;;;;;5071449;28;20216;-85
2021/12/06 09:25:00;;;;;;;17.83;13.30;;;;;;;;;;5068615;28;20193;-85
2021/12/06 09:27:27;;;;;;;16.07;12.23;;;;;;;;;;5070588;28;20728;-85
2021/12/06 09:29:55;;;;;;;17.77;12.97;;;;;;;;;;5068641;28;20262;-85
2021/12/06 09:32:23;;;;;;;17.43;12.33;;;;;;;;;;5075003;28;20211;-85
2021/12/06 09:34:54;;;;;;;18.53;13.13;;;;;;;;;;5088793;28;20193;-87
2021/12/06 09:37:21;;;;;;;18.57;13.97;;;;;;;;;;5066764;28;20242;-87
2021/12/06 09:39:49;;;;;;;19.47;13.70;;;;;;;;;;5074066;28;20200;-87
2021/12/06 09:42:19;;;;;;;15.97;11.83;;;;;;;;;;5065194;28;20205;-87
2021/12/06 09:44:46;;;;;;;17.97;11.80;;;;;;;;;;5065848;28;20204;-86
2021/12/06 09:47:14;;;;;;;20.03;13.40;;;;;;;;;;5062150;28;20282;-86
2021/12/06 09:49:41;;;;;;;17.87;13.00;;;;;;;;;;5065434;28;20238;-86
2021/12/06 09:52:09;;;;;;;18.73;12.27;;;;;;;;;;5064099;28;20209;-86
2021/12/06 09:54:39;;;;;;;16.93;12.27;;;;;;;;;;5066364;28;20201;-86
2021/12/06 09:57:08;;;;;;;18.20;12.17;;;;;;;;;;5070552;28;20228;-86
2021/12/06 09:59:37;;;;;;;18.70;12.13;;;;;;;;;;5065123;28;20205;-86
2021/12/06 10:02:06;;;;;;;15.53;11.43;;;;;;;;;;5069652;28;20219;-85
2021/12/06 10:04:35;;;;;;;18.03;12.57;;;;;;;;;;5062707;28;20337;-86
2021/12/06 10:07:06;;;;;;;17.97;12.10;;;;;;;;;;5059827;28;20213;-86
2021/12/06 10:09:34;;;;;;;16.00;11.40;;;;;;;;;;5067466;28;20217;-85
2021/12/06 10:12:02;;;;;;;16.83;11.97;;;;;;;;;;5077149;28;20192;-85
2021/12/06 10:14:29;;;;;;;15.83;12.20;;;;;;;;;;5074157;28;20204;-84
2021/12/06 10:16:58;;;;;;;17.27;12.03;;;;;;;;;;5073704;28;20425;-87
2021/12/06 10:19:28;;;;;;;15.00;10.47;;;;;;;;;;5071579;28;20274;-87
2021/12/06 10:21:56;;;;;;;14.60;10.67;;;;;;;;;;5070197;28;20196;-83
2021/12/06 10:24:24;;;;;;;12.77;8.90;;;;;;;;;;5065607;28;20209;-85
2021/12/06 10:26:53;;;;;;;9.90;8.67;;;;;;;;;;5072829;28;20655;-83
2021/12/06 10:29:22;;;;;;;9.80;8.17;;;;;;;;;;5068123;28;20205;-84
2021/12/06 10:31:51;;;;;;;11.83;7.40;;;;;;;;;;5069498;28;20224;-84
2021/12/06 10:34:24;;;;;;;10.63;7.37;;;;;;;;;;5069026;28;20212;-83
2021/12/06 10:36:51;;;;;;;7.83;5.83;;;;;;;;;;5064607;28;20213;-83
2021/12/06 10:39:19;;;;;;;8.27;6.57;;;;;;;;;;5071865;28;20196;-83
2021/12/06 10:41:49;;;;;;;9.60;6.67;;;;;;;;;;5072659;28;20200;-84
2021/12/06 10:44:16;;;;;;;6.00;4.43;;;;;;;;;;5069998;28;20295;-83
2021/12/06 10:46:46;;;;;;;4.43;4.03;;;;;;;;;;5076234;28;20220;-83
2021/12/06 10:49:14;;;;;;;4.37;3.97;;;;;;;;;;5071083;28;20287;-83
2021/12/06 10:51:43;;;;;;;5.67;4.80;;;;;;;;;;5073014;28;20224;-83
2021/12/06 10:54:17;;;;;;;7.27;6.50;;;;;;;;;;5073770;28;20235;-83
2021/12/06 10:56:47;;;;;;;7.80;6.20;;;;;;;;;;5068058;28;20259;-83
2021/12/06 10:59:15;;;;;;;9.73;6.27;;;;;;;;;;5074581;28;20241;-83
2021/12/06 11:01:43;;;;;;;8.37;5.80;;;;;;;;;;5074436;28;20254;-83
2021/12/06 11:04:12;;;;;;;8.17;5.90;;;;;;;;;;5074506;28;20291;-83
2021/12/06 11:06:43;;;;;;;4.50;4.10;;;;;;;;;;5076004;28;20228;-83
2021/12/06 11:09:12;;;;;;;5.10;3.50;;;;;;;;;;5076540;28;20224;-85
2021/12/06 11:11:40;;;;;;;3.63;3.27;;;;;;;;;;5076728;28;20313;-85
2021/12/06 11:14:09;;;;;;;3.83;3.53;;;;;;;;;;5076074;28;20231;-84
2021/12/06 11:16:38;;;;;;;4.00;3.60;;;;;;;;;;5097950;22;20251;-83
2021/12/06 11:19:07;;;;;;;4.03;3.63;;;;;;;;;;5054630;28;20252;-83
2021/12/06 11:21:36;;;;;;;3.50;3.20;;;;;;;;;;5057447;28;20229;-84
2021/12/06 11:24:13;;;;;;;3.87;3.40;;;;;;;;;;5058362;28;20215;-85
2021/12/06 11:26:42;;;;;;;2.97;2.73;;;;;;;;;;5060759;28;20224;-84
2021/12/06 11:29:11;;;;;;;3.07;2.80;;;;;;;;;;5057600;28;20623;-84
2021/12/06 11:31:39;;;;;;;3.03;2.83;;;;;;;;;;5058409;28;20252;-84
2021/12/06 11:34:07;;;;;;;2.53;2.33;;;;;;;;;;5051068;28;20221;-84
2021/12/06 11:36:35;;;;;;;2.60;2.30;;;;;;;;;;5052424;28;20213;-86
2021/12/06 11:39:13;;;;;;;5.57;2.70;;;;;;;;;;5050623;28;20209;-87
2021/12/06 11:41:44;;;;;;;4.10;2.30;;;;;;;;;;5049951;28;20246;-85
2021/12/06 11:44:20;;;;;;;2.73;2.53;;;;;;;;;;5054555;28;20241;-83
2021/12/06 11:46:48;;;;;;;2.97;2.60;;;;;;;;;;5074333;28;20221;-84
2021/12/06 11:49:19;;;;;;;2.60;2.40;;;;;;;;;;5064429;28;20213;-84
2021/12/06 11:51:47;;;;;;;2.70;2.50;;;;;;;;;;5052393;28;20263;-83
2021/12/06 11:54:14;;;;;;;2.43;2.30;;;;;;;;;;5055816;28;20280;-84
2021/12/06 11:56:48;;;;;;;2.70;2.50;;;;;;;;;;5052725;28;20221;-83
2021/12/06 11:59:17;;;;;;;2.40;2.20;;;;;;;;;;5057959;28;20208;-85
2021/12/06 12:01:46;;;;;;;2.13;1.90;;;;;;;;;;5059714;28;20208;-85
2021/12/06 12:04:14;;;;;;;2.57;2.37;;;;;;;;;;5060217;28;20243;-84
2021/12/06 12:06:43;;;;;;;4.10;2.27;;;;;;;;;;5056951;28;20245;-83
2021/12/06 12:09:12;;;;;;;2.30;2.10;;;;;;;;;;5059098;28;20205;-85
2021/12/06 12:12:01;;;;;;;3.17;2.07;;;;;;;;;;5054908;28;20221;-84
2021/12/06 12:14:29;;;;;;;2.07;1.90;;;;;;;;;;5055512;28;20205;-83
2021/12/06 12:16:58;;;;;;;2.33;2.20;;;;;;;;;;5058568;28;20286;-84
2021/12/06 12:19:25;;;;;;;2.77;2.57;;;;;;;;;;5057560;28;20205;-85
2021/12/06 12:21:54;;;;;;;2.43;2.23;;;;;;;;;;5058688;28;20209;-84
2021/12/06 12:24:24;;;;;;;7.60;2.70;;;;;;;;;;5056624;28;20212;-85
2021/12/06 12:27:01;;;;;;;2.77;2.50;;;;;;;;;;5053658;28;20236;-84
2021/12/06 12:29:30;;;;;;;1.90;1.80;;;;;;;;;;5057022;28;20207;-84
2021/12/06 12:32:00;;;;;;;2.27;2.00;;;;;;;;;;5056933;28;20652;-84
2021/12/06 12:34:28;;;;;;;3.83;1.90;;;;;;;;;;5057101;28;20232;-83
2021/12/06 12:36:55;;;;;;;2.47;2.20;;;;;;;;;;5053173;28;20275;-83
2021/12/06 12:39:24;;;;;;;3.73;2.70;;;;;;;;;;5051404;28;20201;-83
2021/12/06 12:41:53;;;;;;;2.50;2.30;;;;;;;;;;5051037;28;20193;-83
2021/12/06 12:44:23;;;;;;;2.80;2.50;;;;;;;;;;5048084;28;20228;-84
2021/12/06 12:46:55;;;;;;;8.37;2.70;;;;;;;;;;5053134;28;20229;-84
2021/12/06 12:49:30;;;;;;;4.33;2.73;;;;;;;;;;5053911;28;20205;-85
2021/12/06 12:52:00;;;;;;;4.23;3.13;;;;;;;;;;5051730;28;20304;-84
2021/12/06 12:54:28;;;;;;;3.10;2.80;;;;;;;;;;5051181;28;20198;-84
2021/12/06 12:56:57;;;;;;;3.00;2.70;;;;;;;;;;5055968;28;20214;-85
2021/12/06 12:59:30;;;;;;;3.27;3.07;;;;;;;;;;5049145;28;20201;-84
2021/12/06 13:02:32;;;;;;;3.53;3.20;;;;;;;;;;5055494;28;20209;-84
2021/12/06 13:05:11;;;;;;;5.63;3.37;;;;;;;;;;5016367;28;20198;-84
2021/12/06 13:07:58;;;;;;;3.67;2.90;;;;;;;;;;5010934;28;20233;-83
2021/12/06 13:10:46;;;;;;;3.50;3.20;;;;;;;;;;5042757;28;20225;-84
2021/12/06 13:13:18;;;;;;;3.90;3.50;;;;;;;;;;5051744;28;20205;-83
2021/12/06 13:15:53;;;;;;;4.30;3.40;;;;;;;;;;5051416;28;20194;-84
2021/12/06 13:18:31;;;;;;;4.00;3.50;;;;;;;;;;5047651;28;20243;-86
2021/12/06 13:21:13;;;;;;;4.27;3.23;;;;;;;;;;5058091;28;20200;-84
2021/12/06 13:23:42;;;;;;;3.20;2.90;;;;;;;;;;5058335;28;20228;-84
2021/12/06 13:26:10;;;;;;;4.33;3.60;;;;;;;;;;5059148;28;20259;-83
2021/12/06 13:29:10;;;;;;;7.83;3.77;;;;;;;;;;5059355;28;20251;-83
2021/12/06 13:31:38;;;;;;;4.20;3.80;;;;;;;;;;4993204;28;20313;-84
2021/12/06 13:34:17;;;;;;;4.53;3.90;;;;;;;;;;4995586;28;20293;-83
2021/12/06 13:36:50;;;;;;;3.67;3.37;;;;;;;;;;5031487;28;20248;-84
2021/12/06 13:39:32;;;;;;;3.97;3.40;;;;;;;;;;5054934;28;20233;-84
2021/12/06 13:42:05;;;;;;;3.53;3.23;;;;;;;;;;5056950;28;20197;-84
2021/12/06 13:44:50;;;;;;;3.40;3.00;;;;;;;;;;5055904;28;20224;-83
2021/12/06 13:47:18;;;;;;;3.57;3.27;;;;;;;;;;5058896;28;20229;-84
2021/12/06 13:49:53;;;;;;;4.20;3.80;;;;;;;;;;5057041;28;20228;-84
2021/12/06 13:52:30;;;;;;;7.67;4.37;;;;;;;;;;5057784;28;20298;-84
2021/12/06 13:54:57;;;;;;;6.27;4.40;;;;;;;;;;5054572;28;20192;-84
2021/12/06 13:57:26;;;;;;;5.13;4.17;;;;;;;;;;5054971;28;20236;-84
2021/12/06 13:59:57;;;;;;;8.50;5.90;;;;;;;;;;5055648;28;20644;-84
2021/12/06 14:02:27;;;;;;;10.83;8.70;;;;;;;;;;5056101;28;20205;-84
2021/12/06 14:04:55;;;;;;;14.13;9.73;;;;;;;;;;5059532;28;20208;-84
2021/12/06 14:07:23;;;;;;;10.03;9.00;;;;;;;;;;5059145;28;20259;-84
2021/12/06 14:09:52;;;;;;;11.73;9.17;;;;;;;;;;5058815;28;20205;-84
2021/12/06 14:12:21;;;;;;;11.60;8.37;;;;;;;;;;5057168;28;20232;-84
2021/12/06 14:14:54;;;;;;;10.13;6.90;;;;;;;;;;5059130;28;20213;-85
2021/12/06 14:17:21;;;;;;;12.17;9.80;;;;;;;;;;5060608;28;20255;-83
2021/12/06 14:19:49;;;;;;;12.93;10.30;;;;;;;;;;5059700;28;20208;-83
2021/12/06 14:22:18;;;;;;;12.63;9.27;;;;;;;;;;5056922;28;20197;-83
2021/12/06 14:24:46;;;;;;;11.27;10.07;;;;;;;;;;5060620;28;20220;-83
2021/12/06 14:27:14;;;;;;;12.07;10.13;;;;;;;;;;5057153;28;20213;-82
2021/12/06 14:29:42;;;;;;;16.20;11.60;;;;;;;;;;5057741;28;20204;-83
2021/12/06 14:32:11;;;;;;;13.73;11.20;;;;;;;;;;5057012;28;20209;-84
2021/12/06 14:34:40;;;;;;;14.33;12.17;;;;;;;;;;5059711;28;20228;-82
2021/12/06 14:37:09;;;;;;;14.17;11.50;;;;;;;;;;5061677;28;20217;-83
2021/12/06 14:39:38;;;;;;;16.37;11.37;;;;;;;;;;5058711;28;20209;-83
2021/12/06 14:42:13;;;;;;;16.07;11.03;;;;;;;;;;5056063;28;20201;-82
2021/12/06 14:44:54;;;;;;;15.80;12.80;;;;;;;;;;5061090;28;20188;-82
2021/12/06 14:47:42;;;;;;;16.07;11.80;;;;;;;;;;5066341;28;20232;-83
2021/12/06 14:50:14;;;;;;;16.73;12.27;;;;;;;;;;5062063;28;20216;-82